sensor_id;sensor_type;location;lat;lon;timestamp;P1;durP1;ratioP1;P2;durP2;ratioP2
76228;SDS011;65021;53.174;18.160;2023-10-08T00:01:16;8.10;;;1.70;;
76228;SDS011;65021;53.174;18.160;2023-10-08T00:03:43;6.40;;;1.90;;
76228;SDS011;65021;53.174;18.160;2023-10-08T00:06:20;7.40;;;1.80;;
76228;SDS011;65021;53.174;18.160;2023-10-08T00:08:47;9.50;;;2.10;;
76228;SDS011;65021;53.174;18.160;2023-10-08T00:11:14;9.00;;;1.70;;
76228;SDS011;65021;53.174;18.160;2023-10-08T00:13:44;6.90;;;1.60;;
76228;SDS011;65021;53.174;18.160;2023-10-08T00:16:14;7.30;;;1.60;;
76228;SDS011;65021;53.174;18.160;2023-10-08T00:18:43;5.80;;;1.40;;
76228;SDS011;65021;53.174;18.160;2023-10-08T00:21:17;8.90;;;1.70;;
76228;SDS011;65021;53.174;18.160;2023-10-08T00:23:46;8.10;;;1.70;;
76228;SDS011;65021;53.174;18.160;2023-10-08T00:26:19;4.50;;;1.00;;
76228;SDS011;65021;53.174;18.160;2023-10-08T00:28:54;6.30;;;1.50;;
76228;SDS011;65021;53.174;18.160;2023-10-08T00:31:44;7.50;;;1.60;;
76228;SDS011;65021;53.174;18.160;2023-10-08T00:34:11;8.20;;;1.40;;
76228;SDS011;65021;53.174;18.160;2023-10-08T00:36:43;9.10;;;1.70;;
76228;SDS011;65021;53.174;18.160;2023-10-08T00:39:12;4.40;;;2.00;;
76228;SDS011;65021;53.174;18.160;2023-10-08T00:41:49;6.90;;;1.10;;
76228;SDS011;65021;53.174;18.160;2023-10-08T00:44:17;4.40;;;1.30;;
76228;SDS011;65021;53.174;18.160;2023-10-08T00:46:50;5.50;;;1.40;;
76228;SDS011;65021;53.174;18.160;2023-10-08T00:49:21;5.10;;;1.20;;
76228;SDS011;65021;53.174;18.160;2023-10-08T00:51:49;7.90;;;1.60;;
76228;SDS011;65021;53.174;18.160;2023-10-08T00:54:36;7.90;;;1.40;;
76228;SDS011;65021;53.174;18.160;2023-10-08T00:57:21;6.40;;;1.70;;
76228;SDS011;65021;53.174;18.160;2023-10-08T00:59:51;5.60;;;1.50;;
76228;SDS011;65021;53.174;18.160;2023-10-08T01:02:25;6.60;;;1.50;;
76228;SDS011;65021;53.174;18.160;2023-10-08T01:05:14;6.10;;;1.30;;
76228;SDS011;65021;53.174;18.160;2023-10-08T01:07:59;6.00;;;1.30;;
76228;SDS011;65021;53.174;18.160;2023-10-08T01:10:32;7.80;;;1.60;;
76228;SDS011;65021;53.174;18.160;2023-10-08T01:12:58;6.00;;;1.00;;
76228;SDS011;65021;53.174;18.160;2023-10-08T01:19:00;7.20;;;1.40;;
76228;SDS011;65021;53.174;18.160;2023-10-08T01:21:31;6.40;;;1.20;;
76228;SDS011;65021;53.174;18.160;2023-10-08T01:24:00;4.70;;;1.20;;
76228;SDS011;65021;53.174;18.160;2023-10-08T01:26:29;4.80;;;1.40;;
76228;SDS011;65021;53.174;18.160;2023-10-08T01:28:58;5.40;;;1.10;;
76228;SDS011;65021;53.174;18.160;2023-10-08T01:31:29;5.00;;;1.80;;
76228;SDS011;65021;53.174;18.160;2023-10-08T01:33:56;7.90;;;1.50;;
76228;SDS011;65021;53.174;18.160;2023-10-08T01:36:24;3.70;;;0.90;;
76228;SDS011;65021;53.174;18.160;2023-10-08T01:38:52;4.80;;;0.90;;
76228;SDS011;65021;53.174;18.160;2023-10-08T01:41:21;2.70;;;0.80;;
76228;SDS011;65021;53.174;18.160;2023-10-08T01:43:56;3.50;;;0.80;;
76228;SDS011;65021;53.174;18.160;2023-10-08T01:46:26;4.70;;;1.10;;
76228;SDS011;65021;53.174;18.160;2023-10-08T01:48:53;4.40;;;1.10;;
76228;SDS011;65021;53.174;18.160;2023-10-08T01:51:29;2.80;;;0.90;;
76228;SDS011;65021;53.174;18.160;2023-10-08T01:54:03;3.10;;;0.80;;
76228;SDS011;65021;53.174;18.160;2023-10-08T01:56:39;3.30;;;0.80;;
76228;SDS011;65021;53.174;18.160;2023-10-08T01:59:11;1.60;;;0.60;;
76228;SDS011;65021;53.174;18.160;2023-10-08T02:01:40;3.50;;;0.90;;
76228;SDS011;65021;53.174;18.160;2023-10-08T02:04:07;2.40;;;1.10;;
76228;SDS011;65021;53.174;18.160;2023-10-08T02:06:34;2.40;;;0.70;;
76228;SDS011;65021;53.174;18.160;2023-10-08T02:09:01;1.50;;;0.50;;
76228;SDS011;65021;53.174;18.160;2023-10-08T02:11:43;3.00;;;0.70;;
76228;SDS011;65021;53.174;18.160;2023-10-08T02:14:11;4.90;;;0.90;;
76228;SDS011;65021;53.174;18.160;2023-10-08T02:16:39;2.20;;;0.60;;
76228;SDS011;65021;53.174;18.160;2023-10-08T02:19:05;2.80;;;0.60;;
76228;SDS011;65021;53.174;18.160;2023-10-08T02:21:33;1.80;;;0.60;;
76228;SDS011;65021;53.174;18.160;2023-10-08T02:23:59;1.70;;;0.40;;
76228;SDS011;65021;53.174;18.160;2023-10-08T02:26:26;1.50;;;0.70;;
76228;SDS011;65021;53.174;18.160;2023-10-08T02:28:52;3.30;;;0.80;;
76228;SDS011;65021;53.174;18.160;2023-10-08T02:31:20;3.40;;;0.80;;
76228;SDS011;65021;53.174;18.160;2023-10-08T02:33:46;2.60;;;0.50;;
76228;SDS011;65021;53.174;18.160;2023-10-08T02:36:13;1.30;;;0.40;;
76228;SDS011;65021;53.174;18.160;2023-10-08T02:38:40;2.50;;;0.70;;
76228;SDS011;65021;53.174;18.160;2023-10-08T02:41:06;2.50;;;1.00;;
76228;SDS011;65021;53.174;18.160;2023-10-08T02:43:33;1.80;;;0.50;;
76228;SDS011;65021;53.174;18.160;2023-10-08T02:46:02;2.60;;;0.70;;
76228;SDS011;65021;53.174;18.160;2023-10-08T02:48:41;2.20;;;0.80;;
76228;SDS011;65021;53.174;18.160;2023-10-08T02:51:08;1.10;;;0.30;;
76228;SDS011;65021;53.174;18.160;2023-10-08T02:53:40;1.50;;;0.40;;
76228;SDS011;65021;53.174;18.160;2023-10-08T02:56:10;1.40;;;0.40;;
76228;SDS011;65021;53.174;18.160;2023-10-08T02:58:40;1.40;;;0.40;;
76228;SDS011;65021;53.174;18.160;2023-10-08T03:01:07;1.90;;;0.50;;
76228;SDS011;65021;53.174;18.160;2023-10-08T03:03:39;1.20;;;0.50;;
76228;SDS011;65021;53.174;18.160;2023-10-08T03:06:07;0.70;;;0.20;;
76228;SDS011;65021;53.174;18.160;2023-10-08T03:08:38;1.40;;;0.40;;
76228;SDS011;65021;53.174;18.160;2023-10-08T03:11:08;2.90;;;0.40;;
76228;SDS011;65021;53.174;18.160;2023-10-08T03:13:46;3.30;;;0.50;;
76228;SDS011;65021;53.174;18.160;2023-10-08T03:16:13;0.70;;;0.30;;
76228;SDS011;65021;53.174;18.160;2023-10-08T03:18:40;2.30;;;0.60;;
76228;SDS011;65021;53.174;18.160;2023-10-08T03:21:16;2.50;;;0.80;;
76228;SDS011;65021;53.174;18.160;2023-10-08T03:24:08;1.40;;;0.40;;
76228;SDS011;65021;53.174;18.160;2023-10-08T03:26:56;1.90;;;0.50;;
76228;SDS011;65021;53.174;18.160;2023-10-08T03:29:35;0.40;;;0.10;;
76228;SDS011;65021;53.174;18.160;2023-10-08T03:32:08;0.20;;;0.10;;
76228;SDS011;65021;53.174;18.160;2023-10-08T03:34:40;1.30;;;0.50;;
76228;SDS011;65021;53.174;18.160;2023-10-08T03:37:15;0.70;;;0.30;;
76228;SDS011;65021;53.174;18.160;2023-10-08T03:39:50;1.60;;;0.50;;
76228;SDS011;65021;53.174;18.160;2023-10-08T03:42:23;1.30;;;0.40;;
76228;SDS011;65021;53.174;18.160;2023-10-08T03:44:50;1.00;;;0.40;;
76228;SDS011;65021;53.174;18.160;2023-10-08T03:47:18;1.40;;;0.40;;
76228;SDS011;65021;53.174;18.160;2023-10-08T03:49:45;1.10;;;0.30;;
76228;SDS011;65021;53.174;18.160;2023-10-08T03:52:12;2.50;;;0.50;;
76228;SDS011;65021;53.174;18.160;2023-10-08T03:54:39;0.60;;;0.30;;
76228;SDS011;65021;53.174;18.160;2023-10-08T03:57:14;1.40;;;0.50;;
76228;SDS011;65021;53.174;18.160;2023-10-08T03:59:51;2.40;;;1.20;;
76228;SDS011;65021;53.174;18.160;2023-10-08T04:02:24;0.70;;;0.30;;
76228;SDS011;65021;53.174;18.160;2023-10-08T04:05:06;2.70;;;0.70;;
76228;SDS011;65021;53.174;18.160;2023-10-08T04:07:44;2.30;;;0.30;;
76228;SDS011;65021;53.174;18.160;2023-10-08T04:10:29;3.90;;;0.40;;
76228;SDS011;65021;53.174;18.160;2023-10-08T04:13:09;4.20;;;1.00;;
76228;SDS011;65021;53.174;18.160;2023-10-08T04:15:36;1.30;;;0.30;;
76228;SDS011;65021;53.174;18.160;2023-10-08T04:18:07;1.00;;;0.30;;
76228;SDS011;65021;53.174;18.160;2023-10-08T04:20:37;0.70;;;0.20;;
76228;SDS011;65021;53.174;18.160;2023-10-08T04:23:05;1.30;;;0.40;;
76228;SDS011;65021;53.174;18.160;2023-10-08T04:25:39;1.50;;;0.50;;
76228;SDS011;65021;53.174;18.160;2023-10-08T04:30:45;1.30;;;0.30;;
76228;SDS011;65021;53.174;18.160;2023-10-08T04:33:14;3.90;;;0.50;;
76228;SDS011;65021;53.174;18.160;2023-10-08T04:35:42;3.80;;;0.50;;
76228;SDS011;65021;53.174;18.160;2023-10-08T04:38:19;2.40;;;0.60;;
76228;SDS011;65021;53.174;18.160;2023-10-08T04:40:52;1.50;;;0.50;;
76228;SDS011;65021;53.174;18.160;2023-10-08T04:43:22;2.20;;;0.40;;
76228;SDS011;65021;53.174;18.160;2023-10-08T04:46:09;1.50;;;0.40;;
76228;SDS011;65021;53.174;18.160;2023-10-08T04:48:54;3.60;;;0.50;;
76228;SDS011;65021;53.174;18.160;2023-10-08T04:51:21;1.00;;;0.30;;
76228;SDS011;65021;53.174;18.160;2023-10-08T04:53:49;1.30;;;0.40;;
76228;SDS011;65021;53.174;18.160;2023-10-08T04:56:15;0.40;;;0.20;;
76228;SDS011;65021;53.174;18.160;2023-10-08T04:58:45;2.30;;;0.60;;
76228;SDS011;65021;53.174;18.160;2023-10-08T05:01:17;1.50;;;0.40;;
76228;SDS011;65021;53.174;18.160;2023-10-08T05:03:48;1.40;;;0.40;;
76228;SDS011;65021;53.174;18.160;2023-10-08T05:06:34;2.40;;;0.50;;
76228;SDS011;65021;53.174;18.160;2023-10-08T05:09:02;4.40;;;0.80;;
76228;SDS011;65021;53.174;18.160;2023-10-08T05:11:38;1.90;;;0.60;;
76228;SDS011;65021;53.174;18.160;2023-10-08T05:14:26;2.20;;;0.30;;
76228;SDS011;65021;53.174;18.160;2023-10-08T05:16:58;1.70;;;0.80;;
76228;SDS011;65021;53.174;18.160;2023-10-08T05:19:44;4.10;;;0.50;;
76228;SDS011;65021;53.174;18.160;2023-10-08T05:22:15;2.00;;;0.30;;
76228;SDS011;65021;53.174;18.160;2023-10-08T05:24:58;1.30;;;0.50;;
76228;SDS011;65021;53.174;18.160;2023-10-08T05:27:37;3.40;;;0.50;;
76228;SDS011;65021;53.174;18.160;2023-10-08T05:33:01;1.20;;;0.50;;
76228;SDS011;65021;53.174;18.160;2023-10-08T05:35:44;3.00;;;0.80;;
76228;SDS011;65021;53.174;18.160;2023-10-08T05:38:12;2.10;;;0.70;;
76228;SDS011;65021;53.174;18.160;2023-10-08T05:40:49;3.70;;;1.40;;
76228;SDS011;65021;53.174;18.160;2023-10-08T05:43:27;3.90;;;1.10;;
76228;SDS011;65021;53.174;18.160;2023-10-08T05:46:07;2.20;;;0.80;;
76228;SDS011;65021;53.174;18.160;2023-10-08T05:51:35;0.60;;;0.20;;
76228;SDS011;65021;53.174;18.160;2023-10-08T05:57:03;2.40;;;0.50;;
76228;SDS011;65021;53.174;18.160;2023-10-08T05:59:39;2.00;;;0.70;;
76228;SDS011;65021;53.174;18.160;2023-10-08T06:05:20;2.60;;;0.60;;
76228;SDS011;65021;53.174;18.160;2023-10-08T06:07:53;1.70;;;0.60;;
76228;SDS011;65021;53.174;18.160;2023-10-08T06:10:21;1.60;;;0.40;;
76228;SDS011;65021;53.174;18.160;2023-10-08T06:18:15;1.30;;;0.50;;
76228;SDS011;65021;53.174;18.160;2023-10-08T06:23:12;1.40;;;0.50;;
76228;SDS011;65021;53.174;18.160;2023-10-08T06:25:44;1.40;;;0.50;;
76228;SDS011;65021;53.174;18.160;2023-10-08T06:28:15;3.70;;;0.70;;
76228;SDS011;65021;53.174;18.160;2023-10-08T06:30:55;1.80;;;0.50;;
76228;SDS011;65021;53.174;18.160;2023-10-08T06:33:23;2.00;;;0.50;;
76228;SDS011;65021;53.174;18.160;2023-10-08T06:35:51;1.10;;;0.30;;
76228;SDS011;65021;53.174;18.160;2023-10-08T06:38:53;1.80;;;0.60;;
76228;SDS011;65021;53.174;18.160;2023-10-08T06:41:20;1.70;;;0.50;;
76228;SDS011;65021;53.174;18.160;2023-10-08T06:43:55;1.40;;;0.40;;
76228;SDS011;65021;53.174;18.160;2023-10-08T06:46:29;2.10;;;0.60;;
76228;SDS011;65021;53.174;18.160;2023-10-08T06:49:03;3.40;;;0.60;;
76228;SDS011;65021;53.174;18.160;2023-10-08T06:51:38;0.80;;;0.40;;
76228;SDS011;65021;53.174;18.160;2023-10-08T06:54:05;2.10;;;0.70;;
76228;SDS011;65021;53.174;18.160;2023-10-08T06:56:36;1.80;;;0.60;;
76228;SDS011;65021;53.174;18.160;2023-10-08T06:59:03;2.40;;;0.40;;
76228;SDS011;65021;53.174;18.160;2023-10-08T07:01:31;3.00;;;0.70;;
76228;SDS011;65021;53.174;18.160;2023-10-08T07:04:12;2.70;;;0.80;;
76228;SDS011;65021;53.174;18.160;2023-10-08T07:06:40;1.90;;;0.50;;
76228;SDS011;65021;53.174;18.160;2023-10-08T07:09:11;2.50;;;0.70;;
76228;SDS011;65021;53.174;18.160;2023-10-08T07:11:54;2.30;;;0.40;;
76228;SDS011;65021;53.174;18.160;2023-10-08T07:14:26;2.20;;;0.60;;
76228;SDS011;65021;53.174;18.160;2023-10-08T07:16:54;1.30;;;0.50;;
76228;SDS011;65021;53.174;18.160;2023-10-08T07:19:28;3.30;;;0.60;;
76228;SDS011;65021;53.174;18.160;2023-10-08T07:22:07;2.10;;;0.40;;
76228;SDS011;65021;53.174;18.160;2023-10-08T07:24:49;4.20;;;1.10;;
76228;SDS011;65021;53.174;18.160;2023-10-08T07:27:17;1.70;;;0.40;;
76228;SDS011;65021;53.174;18.160;2023-10-08T07:29:48;4.90;;;0.70;;
76228;SDS011;65021;53.174;18.160;2023-10-08T07:32:15;2.50;;;0.60;;
76228;SDS011;65021;53.174;18.160;2023-10-08T07:34:45;2.10;;;0.90;;
76228;SDS011;65021;53.174;18.160;2023-10-08T07:37:11;3.10;;;0.50;;
76228;SDS011;65021;53.174;18.160;2023-10-08T07:39:38;1.30;;;0.20;;
76228;SDS011;65021;53.174;18.160;2023-10-08T07:42:13;4.50;;;0.70;;
76228;SDS011;65021;53.174;18.160;2023-10-08T07:44:39;2.10;;;0.60;;
76228;SDS011;65021;53.174;18.160;2023-10-08T07:47:06;2.80;;;0.80;;
76228;SDS011;65021;53.174;18.160;2023-10-08T07:49:39;0.90;;;0.30;;
76228;SDS011;65021;53.174;18.160;2023-10-08T07:52:10;2.50;;;0.50;;
76228;SDS011;65021;53.174;18.160;2023-10-08T07:54:41;1.60;;;0.50;;
76228;SDS011;65021;53.174;18.160;2023-10-08T07:57:08;1.20;;;0.40;;
76228;SDS011;65021;53.174;18.160;2023-10-08T07:59:38;1.20;;;0.40;;
76228;SDS011;65021;53.174;18.160;2023-10-08T08:02:24;3.20;;;0.60;;
76228;SDS011;65021;53.174;18.160;2023-10-08T08:04:53;0.90;;;0.30;;
76228;SDS011;65021;53.174;18.160;2023-10-08T08:07:20;1.70;;;0.50;;
76228;SDS011;65021;53.174;18.160;2023-10-08T08:09:49;2.00;;;0.60;;
76228;SDS011;65021;53.174;18.160;2023-10-08T08:12:17;2.80;;;0.50;;
76228;SDS011;65021;53.174;18.160;2023-10-08T08:14:45;1.30;;;0.30;;
76228;SDS011;65021;53.174;18.160;2023-10-08T08:17:12;1.90;;;0.50;;
76228;SDS011;65021;53.174;18.160;2023-10-08T08:19:48;2.90;;;0.60;;
76228;SDS011;65021;53.174;18.160;2023-10-08T08:22:17;1.50;;;0.50;;
76228;SDS011;65021;53.174;18.160;2023-10-08T08:24:48;2.10;;;0.60;;
76228;SDS011;65021;53.174;18.160;2023-10-08T08:27:19;2.00;;;0.60;;
76228;SDS011;65021;53.174;18.160;2023-10-08T08:29:58;2.40;;;0.70;;
76228;SDS011;65021;53.174;18.160;2023-10-08T08:32:36;2.50;;;0.50;;
76228;SDS011;65021;53.174;18.160;2023-10-08T08:35:09;3.00;;;0.50;;
76228;SDS011;65021;53.174;18.160;2023-10-08T08:37:36;1.50;;;0.50;;
76228;SDS011;65021;53.174;18.160;2023-10-08T08:40:07;3.40;;;0.50;;
76228;SDS011;65021;53.174;18.160;2023-10-08T08:42:44;2.90;;;0.50;;
76228;SDS011;65021;53.174;18.160;2023-10-08T08:45:13;3.10;;;0.70;;
76228;SDS011;65021;53.174;18.160;2023-10-08T08:47:53;1.70;;;0.40;;
76228;SDS011;65021;53.174;18.160;2023-10-08T08:50:20;2.10;;;0.60;;
76228;SDS011;65021;53.174;18.160;2023-10-08T08:52:47;2.40;;;0.80;;
76228;SDS011;65021;53.174;18.160;2023-10-08T08:55:14;1.80;;;0.60;;
76228;SDS011;65021;53.174;18.160;2023-10-08T08:57:43;2.60;;;0.50;;
76228;SDS011;65021;53.174;18.160;2023-10-08T09:00:11;2.20;;;0.50;;
76228;SDS011;65021;53.174;18.160;2023-10-08T09:10:24;1.50;;;0.50;;
76228;SDS011;65021;53.174;18.160;2023-10-08T09:12:55;2.50;;;0.50;;
76228;SDS011;65021;53.174;18.160;2023-10-08T09:15:26;1.80;;;0.50;;
76228;SDS011;65021;53.174;18.160;2023-10-08T09:17:53;2.00;;;0.50;;
76228;SDS011;65021;53.174;18.160;2023-10-08T09:20:22;2.00;;;0.40;;
76228;SDS011;65021;53.174;18.160;2023-10-08T09:23:05;1.30;;;0.20;;
76228;SDS011;65021;53.174;18.160;2023-10-08T09:25:38;1.80;;;0.60;;
76228;SDS011;65021;53.174;18.160;2023-10-08T09:28:06;2.50;;;0.50;;
76228;SDS011;65021;53.174;18.160;2023-10-08T09:30:34;1.60;;;0.50;;
76228;SDS011;65021;53.174;18.160;2023-10-08T09:33:05;2.40;;;0.60;;
76228;SDS011;65021;53.174;18.160;2023-10-08T09:35:35;2.00;;;0.60;;
76228;SDS011;65021;53.174;18.160;2023-10-08T09:38:03;2.10;;;0.50;;
76228;SDS011;65021;53.174;18.160;2023-10-08T09:40:31;2.30;;;0.50;;
76228;SDS011;65021;53.174;18.160;2023-10-08T09:42:58;1.50;;;0.30;;
76228;SDS011;65021;53.174;18.160;2023-10-08T09:45:25;3.10;;;0.50;;
76228;SDS011;65021;53.174;18.160;2023-10-08T09:47:55;3.00;;;0.60;;
76228;SDS011;65021;53.174;18.160;2023-10-08T09:50:27;3.10;;;0.80;;
76228;SDS011;65021;53.174;18.160;2023-10-08T09:55:41;1.40;;;0.60;;
76228;SDS011;65021;53.174;18.160;2023-10-08T09:58:12;1.70;;;0.40;;
76228;SDS011;65021;53.174;18.160;2023-10-08T10:00:40;2.00;;;0.30;;
76228;SDS011;65021;53.174;18.160;2023-10-08T10:03:10;2.60;;;0.80;;
76228;SDS011;65021;53.174;18.160;2023-10-08T10:05:38;2.10;;;0.50;;
76228;SDS011;65021;53.174;18.160;2023-10-08T10:08:06;2.80;;;0.70;;
76228;SDS011;65021;53.174;18.160;2023-10-08T10:10:37;2.90;;;0.60;;
76228;SDS011;65021;53.174;18.160;2023-10-08T10:13:05;1.20;;;0.30;;
76228;SDS011;65021;53.174;18.160;2023-10-08T10:15:35;3.20;;;0.70;;
76228;SDS011;65021;53.174;18.160;2023-10-08T10:18:09;3.00;;;0.50;;
76228;SDS011;65021;53.174;18.160;2023-10-08T10:20:40;1.50;;;0.50;;
76228;SDS011;65021;53.174;18.160;2023-10-08T10:26:02;1.80;;;0.60;;
76228;SDS011;65021;53.174;18.160;2023-10-08T10:28:30;2.00;;;0.50;;
76228;SDS011;65021;53.174;18.160;2023-10-08T10:30:57;2.70;;;0.70;;
76228;SDS011;65021;53.174;18.160;2023-10-08T10:33:29;1.60;;;0.40;;
76228;SDS011;65021;53.174;18.160;2023-10-08T10:35:57;2.10;;;0.60;;
76228;SDS011;65021;53.174;18.160;2023-10-08T10:38:26;4.00;;;0.70;;
76228;SDS011;65021;53.174;18.160;2023-10-08T10:40:53;1.50;;;0.40;;
76228;SDS011;65021;53.174;18.160;2023-10-08T10:43:25;1.70;;;0.40;;
76228;SDS011;65021;53.174;18.160;2023-10-08T10:46:05;3.70;;;0.70;;
76228;SDS011;65021;53.174;18.160;2023-10-08T10:48:52;2.20;;;0.60;;
76228;SDS011;65021;53.174;18.160;2023-10-08T10:51:39;2.00;;;0.50;;
76228;SDS011;65021;53.174;18.160;2023-10-08T10:54:07;0.90;;;0.30;;
76228;SDS011;65021;53.174;18.160;2023-10-08T10:56:34;1.10;;;0.20;;
76228;SDS011;65021;53.174;18.160;2023-10-08T10:59:08;2.30;;;0.50;;
76228;SDS011;65021;53.174;18.160;2023-10-08T11:01:53;1.40;;;0.30;;
76228;SDS011;65021;53.174;18.160;2023-10-08T11:04:35;1.30;;;0.50;;
76228;SDS011;65021;53.174;18.160;2023-10-08T11:07:22;1.70;;;0.50;;
76228;SDS011;65021;53.174;18.160;2023-10-08T11:09:50;1.80;;;0.50;;
76228;SDS011;65021;53.174;18.160;2023-10-08T11:12:18;2.20;;;0.40;;
76228;SDS011;65021;53.174;18.160;2023-10-08T11:14:49;1.60;;;0.50;;
76228;SDS011;65021;53.174;18.160;2023-10-08T11:17:22;2.10;;;0.50;;
76228;SDS011;65021;53.174;18.160;2023-10-08T11:19:50;1.90;;;0.60;;
76228;SDS011;65021;53.174;18.160;2023-10-08T11:22:17;0.80;;;0.30;;
76228;SDS011;65021;53.174;18.160;2023-10-08T11:24:49;2.70;;;0.50;;
76228;SDS011;65021;53.174;18.160;2023-10-08T11:27:20;1.50;;;0.80;;
76228;SDS011;65021;53.174;18.160;2023-10-08T11:30:01;1.90;;;0.50;;
76228;SDS011;65021;53.174;18.160;2023-10-08T11:32:28;1.50;;;0.40;;
76228;SDS011;65021;53.174;18.160;2023-10-08T11:34:59;2.30;;;0.60;;
76228;SDS011;65021;53.174;18.160;2023-10-08T11:37:29;1.50;;;0.40;;
76228;SDS011;65021;53.174;18.160;2023-10-08T11:40:00;2.30;;;0.50;;
76228;SDS011;65021;53.174;18.160;2023-10-08T11:45:01;0.70;;;0.30;;
76228;SDS011;65021;53.174;18.160;2023-10-08T11:47:50;1.80;;;0.50;;
76228;SDS011;65021;53.174;18.160;2023-10-08T11:50:28;0.50;;;0.30;;
76228;SDS011;65021;53.174;18.160;2023-10-08T11:52:58;2.00;;;0.20;;
76228;SDS011;65021;53.174;18.160;2023-10-08T11:55:34;3.70;;;0.60;;
76228;SDS011;65021;53.174;18.160;2023-10-08T11:58:04;1.40;;;0.40;;
76228;SDS011;65021;53.174;18.160;2023-10-08T12:00:42;2.40;;;0.60;;
76228;SDS011;65021;53.174;18.160;2023-10-08T12:03:15;1.00;;;0.40;;
76228;SDS011;65021;53.174;18.160;2023-10-08T12:05:45;1.10;;;0.20;;
76228;SDS011;65021;53.174;18.160;2023-10-08T12:08:16;1.00;;;0.40;;
76228;SDS011;65021;53.174;18.160;2023-10-08T12:10:46;1.90;;;0.60;;
76228;SDS011;65021;53.174;18.160;2023-10-08T12:13:15;1.30;;;0.30;;
76228;SDS011;65021;53.174;18.160;2023-10-08T12:15:59;1.10;;;0.30;;
76228;SDS011;65021;53.174;18.160;2023-10-08T12:18:33;1.30;;;0.40;;
76228;SDS011;65021;53.174;18.160;2023-10-08T12:21:09;2.40;;;0.40;;
76228;SDS011;65021;53.174;18.160;2023-10-08T12:23:37;1.50;;;0.40;;
76228;SDS011;65021;53.174;18.160;2023-10-08T12:26:04;1.00;;;0.30;;
76228;SDS011;65021;53.174;18.160;2023-10-08T12:28:34;1.00;;;0.30;;
76228;SDS011;65021;53.174;18.160;2023-10-08T12:31:02;0.80;;;0.20;;
76228;SDS011;65021;53.174;18.160;2023-10-08T12:33:32;1.50;;;0.40;;
76228;SDS011;65021;53.174;18.160;2023-10-08T12:36:00;1.10;;;0.30;;
76228;SDS011;65021;53.174;18.160;2023-10-08T12:38:37;2.00;;;0.40;;
76228;SDS011;65021;53.174;18.160;2023-10-08T12:41:08;0.90;;;0.50;;
76228;SDS011;65021;53.174;18.160;2023-10-08T12:43:41;0.50;;;0.20;;
76228;SDS011;65021;53.174;18.160;2023-10-08T12:46:11;0.80;;;0.30;;
76228;SDS011;65021;53.174;18.160;2023-10-08T12:48:45;2.20;;;0.50;;
76228;SDS011;65021;53.174;18.160;2023-10-08T12:51:14;2.00;;;0.40;;
76228;SDS011;65021;53.174;18.160;2023-10-08T12:53:42;2.00;;;0.40;;
76228;SDS011;65021;53.174;18.160;2023-10-08T12:56:16;1.60;;;0.50;;
76228;SDS011;65021;53.174;18.160;2023-10-08T12:58:47;0.90;;;0.20;;
76228;SDS011;65021;53.174;18.160;2023-10-08T13:01:15;1.30;;;0.30;;
76228;SDS011;65021;53.174;18.160;2023-10-08T13:03:44;2.20;;;0.50;;
76228;SDS011;65021;53.174;18.160;2023-10-08T13:06:17;1.30;;;0.30;;
76228;SDS011;65021;53.174;18.160;2023-10-08T13:08:59;0.60;;;0.20;;
76228;SDS011;65021;53.174;18.160;2023-10-08T13:11:27;2.70;;;0.40;;
76228;SDS011;65021;53.174;18.160;2023-10-08T13:13:55;1.30;;;0.30;;
76228;SDS011;65021;53.174;18.160;2023-10-08T13:16:27;0.60;;;0.20;;
76228;SDS011;65021;53.174;18.160;2023-10-08T13:18:58;1.50;;;0.50;;
76228;SDS011;65021;53.174;18.160;2023-10-08T13:21:25;0.80;;;0.20;;
76228;SDS011;65021;53.174;18.160;2023-10-08T13:23:53;3.80;;;0.40;;
76228;SDS011;65021;53.174;18.160;2023-10-08T13:26:23;1.70;;;0.50;;
76228;SDS011;65021;53.174;18.160;2023-10-08T13:28:50;1.20;;;0.40;;
76228;SDS011;65021;53.174;18.160;2023-10-08T13:31:17;2.80;;;0.40;;
76228;SDS011;65021;53.174;18.160;2023-10-08T13:33:45;1.70;;;0.50;;
76228;SDS011;65021;53.174;18.160;2023-10-08T13:36:15;2.00;;;0.60;;
76228;SDS011;65021;53.174;18.160;2023-10-08T13:38:43;1.30;;;0.50;;
76228;SDS011;65021;53.174;18.160;2023-10-08T13:41:11;1.90;;;0.50;;
76228;SDS011;65021;53.174;18.160;2023-10-08T13:46:55;0.50;;;0.20;;
76228;SDS011;65021;53.174;18.160;2023-10-08T13:51:52;1.90;;;0.30;;
76228;SDS011;65021;53.174;18.160;2023-10-08T13:54:22;2.50;;;0.70;;
76228;SDS011;65021;53.174;18.160;2023-10-08T13:56:51;1.40;;;0.60;;
76228;SDS011;65021;53.174;18.160;2023-10-08T13:59:18;1.10;;;0.30;;
76228;SDS011;65021;53.174;18.160;2023-10-08T14:01:45;2.10;;;0.40;;
76228;SDS011;65021;53.174;18.160;2023-10-08T14:04:12;0.90;;;0.30;;
76228;SDS011;65021;53.174;18.160;2023-10-08T14:06:43;2.30;;;0.30;;
76228;SDS011;65021;53.174;18.160;2023-10-08T14:09:14;1.10;;;0.70;;
76228;SDS011;65021;53.174;18.160;2023-10-08T14:11:47;2.10;;;0.50;;
76228;SDS011;65021;53.174;18.160;2023-10-08T14:14:16;1.80;;;0.60;;
76228;SDS011;65021;53.174;18.160;2023-10-08T14:16:45;1.40;;;0.40;;
76228;SDS011;65021;53.174;18.160;2023-10-08T14:19:18;1.70;;;0.50;;
76228;SDS011;65021;53.174;18.160;2023-10-08T14:21:49;2.70;;;0.40;;
76228;SDS011;65021;53.174;18.160;2023-10-08T14:24:16;2.90;;;0.60;;
76228;SDS011;65021;53.174;18.160;2023-10-08T14:26:43;2.40;;;0.50;;
76228;SDS011;65021;53.174;18.160;2023-10-08T14:29:10;1.70;;;0.70;;
76228;SDS011;65021;53.174;18.160;2023-10-08T14:31:43;1.40;;;0.30;;
76228;SDS011;65021;53.174;18.160;2023-10-08T14:34:15;1.40;;;0.40;;
76228;SDS011;65021;53.174;18.160;2023-10-08T14:36:42;1.20;;;0.40;;
76228;SDS011;65021;53.174;18.160;2023-10-08T14:39:29;1.90;;;0.50;;
76228;SDS011;65021;53.174;18.160;2023-10-08T14:42:15;1.20;;;0.40;;
76228;SDS011;65021;53.174;18.160;2023-10-08T14:45:00;0.60;;;0.20;;
76228;SDS011;65021;53.174;18.160;2023-10-08T14:47:28;1.80;;;0.50;;
76228;SDS011;65021;53.174;18.160;2023-10-08T14:49:55;1.20;;;0.40;;
76228;SDS011;65021;53.174;18.160;2023-10-08T14:52:22;1.80;;;0.50;;
76228;SDS011;65021;53.174;18.160;2023-10-08T14:54:52;1.90;;;0.40;;
76228;SDS011;65021;53.174;18.160;2023-10-08T14:57:19;0.30;;;0.10;;
76228;SDS011;65021;53.174;18.160;2023-10-08T14:59:46;1.60;;;0.50;;
76228;SDS011;65021;53.174;18.160;2023-10-08T15:02:12;0.40;;;0.10;;
76228;SDS011;65021;53.174;18.160;2023-10-08T15:04:38;0.90;;;0.30;;
76228;SDS011;65021;53.174;18.160;2023-10-08T15:07:06;1.70;;;0.40;;
76228;SDS011;65021;53.174;18.160;2023-10-08T15:09:37;2.40;;;0.60;;
76228;SDS011;65021;53.174;18.160;2023-10-08T15:12:05;1.80;;;0.50;;
76228;SDS011;65021;53.174;18.160;2023-10-08T15:14:35;1.30;;;0.40;;
76228;SDS011;65021;53.174;18.160;2023-10-08T15:17:01;1.30;;;0.30;;
76228;SDS011;65021;53.174;18.160;2023-10-08T15:19:28;2.10;;;0.70;;
76228;SDS011;65021;53.174;18.160;2023-10-08T15:21:55;2.10;;;0.50;;
76228;SDS011;65021;53.174;18.160;2023-10-08T15:24:21;2.30;;;0.60;;
76228;SDS011;65021;53.174;18.160;2023-10-08T15:26:49;1.50;;;0.50;;
76228;SDS011;65021;53.174;18.160;2023-10-08T15:29:16;2.20;;;0.50;;
76228;SDS011;65021;53.174;18.160;2023-10-08T15:31:42;0.50;;;0.30;;
76228;SDS011;65021;53.174;18.160;2023-10-08T15:34:11;1.20;;;0.30;;
76228;SDS011;65021;53.174;18.160;2023-10-08T15:36:39;1.90;;;0.60;;
76228;SDS011;65021;53.174;18.160;2023-10-08T15:39:06;1.60;;;0.50;;
76228;SDS011;65021;53.174;18.160;2023-10-08T15:41:38;1.00;;;0.20;;
76228;SDS011;65021;53.174;18.160;2023-10-08T15:44:05;1.10;;;0.30;;
76228;SDS011;65021;53.174;18.160;2023-10-08T15:46:32;3.20;;;0.60;;